createdAt,value
2018-02-10T00:00:40.243Z,-0.15
2018-02-10T00:03:07.992Z,-0.16
2018-02-10T00:05:35.694Z,-0.17
2018-02-10T00:08:03.384Z,-0.19
2018-02-10T00:10:31.061Z,-0.21
2018-02-10T00:12:58.725Z,-0.22
2018-02-10T00:15:26.447Z,-0.24
2018-02-10T00:17:54.158Z,-0.25
2018-02-10T00:20:21.882Z,-0.27
2018-02-10T00:22:49.581Z,-0.28
2018-02-10T00:25:17.631Z,-0.30
2018-02-10T00:27:45.308Z,-0.31
2018-02-10T00:30:12.979Z,-0.33
2018-02-10T00:32:40.703Z,-0.36
2018-02-10T00:35:08.359Z,-0.37
2018-02-10T00:37:36.041Z,-0.40
2018-02-10T00:40:03.752Z,-0.42
2018-02-10T00:42:31.414Z,-0.45
2018-02-10T00:44:59.099Z,-0.49
2018-02-10T00:47:26.785Z,-0.52
2018-02-10T00:49:54.858Z,-0.52
2018-02-10T00:52:22.506Z,-0.53
2018-02-10T00:54:50.200Z,-0.54
2018-02-10T00:57:18.346Z,-0.55
2018-02-10T00:59:45.970Z,-0.57
2018-02-10T01:02:13.632Z,-0.59
2018-02-10T01:04:42.067Z,-0.61
2018-02-10T01:07:09.731Z,-0.62
2018-02-10T01:09:37.359Z,-0.63
2018-02-10T01:12:05.247Z,-0.65
2018-02-10T01:14:32.974Z,-0.67
2018-02-10T01:17:00.662Z,-0.67
2018-02-10T01:19:28.536Z,-0.70
2018-02-10T01:21:56.282Z,-0.72
2018-02-10T01:24:23.971Z,-0.73
2018-02-10T01:26:51.681Z,-0.75
2018-02-10T01:29:19.293Z,-0.76
2018-02-10T01:31:46.966Z,-0.77
2018-02-10T01:34:14.722Z,-0.78
2018-02-10T01:36:42.400Z,-0.80
2018-02-10T01:39:10.141Z,-0.81
2018-02-10T01:41:38.194Z,-0.85
2018-02-10T01:44:05.789Z,-0.87
2018-02-10T01:46:33.448Z,-0.88
2018-02-10T01:49:01.141Z,-0.89
2018-02-10T01:51:34.927Z,-0.87
2018-02-10T01:54:03.865Z,-0.87
2018-02-10T01:56:31.569Z,-0.88
2018-02-10T01:58:59.326Z,-0.90
2018-02-10T02:01:27.007Z,-0.91
2018-02-10T02:03:54.686Z,-0.93
2018-02-10T02:06:22.409Z,-0.95
2018-02-10T02:08:50.144Z,-0.96
2018-02-10T02:11:17.885Z,-0.96
2018-02-10T02:13:45.673Z,-0.97
2018-02-10T02:16:13.426Z,-0.97
2018-02-10T02:18:41.103Z,-0.99
2018-02-10T02:21:08.844Z,-1.00
2018-02-10T02:23:36.543Z,-1.01
2018-02-10T02:26:04.309Z,-1.02
2018-02-10T02:28:31.995Z,-1.04
2018-02-10T02:30:59.832Z,-1.05
2018-02-10T02:33:27.523Z,-1.07
2018-02-10T02:35:55.234Z,-1.09
2018-02-10T02:38:24.935Z,-1.10
2018-02-10T02:40:52.615Z,-1.11
2018-02-10T02:43:20.649Z,-1.13
2018-02-10T02:45:48.277Z,-1.15
2018-02-10T02:48:15.926Z,-1.16
2018-02-10T02:50:43.771Z,-1.16
2018-02-10T02:53:11.413Z,-1.16
2018-02-10T02:55:39.091Z,-1.17
2018-02-10T02:58:06.804Z,-1.19
2018-02-10T03:00:34.473Z,-1.20
2018-02-10T03:03:02.134Z,-1.21
2018-02-10T03:05:29.799Z,-1.23
2018-02-10T03:07:57.575Z,-1.24
2018-02-10T03:10:25.261Z,-1.23
2018-02-10T03:12:52.934Z,-1.24
2018-02-10T03:15:20.969Z,-1.21
2018-02-10T03:17:49.037Z,-1.20
2018-02-10T03:20:16.725Z,-1.18
2018-02-10T03:22:44.444Z,-1.16
2018-02-10T03:25:12.833Z,-1.15
2018-02-10T03:27:40.576Z,-1.12
2018-02-10T03:30:08.242Z,-1.10
2018-02-10T03:32:36.045Z,-1.07
2018-02-10T03:35:03.706Z,-1.06
2018-02-10T03:37:31.430Z,-1.04
2018-02-10T03:39:59.120Z,-1.01
2018-02-10T03:42:26.875Z,-0.97
2018-02-10T03:44:55.052Z,-0.95
2018-02-10T03:47:22.753Z,-0.91
2018-02-10T03:49:50.430Z,-0.90
2018-02-10T03:52:18.163Z,-0.86
2018-02-10T03:54:46.006Z,-0.83
2018-02-10T03:57:13.834Z,-0.80
2018-02-10T03:59:41.857Z,-0.77
2018-02-10T04:02:09.512Z,-0.76
2018-02-10T04:04:37.322Z,-0.72
2018-02-10T04:07:05.052Z,-0.69
2018-02-10T04:09:32.749Z,-0.67
2018-02-10T04:12:00.511Z,-0.65
2018-02-10T04:14:28.273Z,-0.62
2018-02-10T04:16:55.948Z,-0.57
2018-02-10T04:19:23.631Z,-0.54
2018-02-10T04:21:51.323Z,-0.52
2018-02-10T04:24:18.998Z,-0.50
2018-02-10T04:26:46.818Z,-0.47
2018-02-10T04:29:14.518Z,-0.45
2018-02-10T04:31:42.233Z,-0.42
2018-02-10T04:34:09.896Z,-0.39
2018-02-10T04:36:37.680Z,-0.36
2018-02-10T04:39:05.466Z,-0.33
2018-02-10T04:41:33.142Z,-0.32
2018-02-10T04:44:00.892Z,-0.30
2018-02-10T04:46:28.533Z,-0.28
2018-02-10T04:48:56.191Z,-0.25
2018-02-10T04:51:23.919Z,-0.23
2018-02-10T04:53:51.561Z,-0.22
2018-02-10T04:56:19.263Z,-0.21
2018-02-10T04:58:47.012Z,-0.19
2018-02-10T05:01:14.645Z,-0.16
2018-02-10T05:03:42.392Z,-0.16
2018-02-10T05:06:10.093Z,-0.14
2018-02-10T05:08:37.899Z,-0.12
2018-02-10T05:11:05.609Z,-0.12
2018-02-10T05:13:33.264Z,-0.10
2018-02-10T05:16:01.095Z,-0.08
2018-02-10T05:18:28.774Z,-0.06
2018-02-10T05:20:56.546Z,-0.04
2018-02-10T05:23:24.243Z,-0.04
2018-02-10T05:25:51.975Z,-0.03
2018-02-10T05:28:20.572Z,-0.03
2018-02-10T05:30:48.332Z,-0.03
2018-02-10T05:33:15.949Z,-0.02
2018-02-10T05:35:43.595Z,0.00
2018-02-10T05:38:11.307Z,0.00
2018-02-10T05:40:39.045Z,0.02
2018-02-10T05:43:07.912Z,0.05
2018-02-10T05:45:35.830Z,0.06
2018-02-10T05:48:03.600Z,0.08
2018-02-10T05:50:31.390Z,0.09
2018-02-10T05:52:59.111Z,0.10
2018-02-10T05:55:26.809Z,0.12
2018-02-10T05:57:54.596Z,0.13
2018-02-10T06:00:22.350Z,0.15
2018-02-10T06:02:49.986Z,0.16
2018-02-10T06:05:17.768Z,0.16
2018-02-10T06:07:45.474Z,0.18
2018-02-10T06:10:13.283Z,0.19
2018-02-10T06:12:40.987Z,0.20
2018-02-10T06:15:08.719Z,0.22
2018-02-10T06:17:36.475Z,0.23
2018-02-10T06:20:04.147Z,0.23
2018-02-10T06:22:31.966Z,0.23
2018-02-10T06:24:59.707Z,0.23
2018-02-10T06:27:27.404Z,0.24
2018-02-10T06:29:55.153Z,0.27
2018-02-10T06:32:23.577Z,0.29
2018-02-10T06:34:51.325Z,0.30
2018-02-10T06:37:18.959Z,0.30
2018-02-10T06:39:46.718Z,0.31
2018-02-10T06:42:14.491Z,0.32
2018-02-10T06:44:42.260Z,0.35
2018-02-10T06:47:09.980Z,0.36
2018-02-10T06:49:37.669Z,0.37
2018-02-10T06:52:05.382Z,0.39
2018-02-10T06:54:33.088Z,0.37
2018-02-10T06:57:00.871Z,0.38
2018-02-10T06:59:28.499Z,0.39
2018-02-10T07:01:56.202Z,0.40
2018-02-10T07:04:23.850Z,0.41
2018-02-10T07:06:51.568Z,0.41
2018-02-10T07:09:19.278Z,0.41
2018-02-10T07:11:46.924Z,0.41
2018-02-10T07:14:15.128Z,0.43
2018-02-10T07:16:42.877Z,0.42
2018-02-10T07:19:10.626Z,0.43
2018-02-10T07:21:38.356Z,0.45
2018-02-10T07:24:06.090Z,0.46
2018-02-10T07:26:34.117Z,0.47
2018-02-10T07:29:02.120Z,0.50
2018-02-10T07:31:29.781Z,0.53
2018-02-10T07:33:57.681Z,0.54
2018-02-10T07:36:25.414Z,0.55
2018-02-10T07:38:53.148Z,0.57
2018-02-10T07:41:20.823Z,0.58
2018-02-10T07:43:48.803Z,0.59
2018-02-10T07:46:16.443Z,0.60
2018-02-10T07:48:44.103Z,0.60
2018-02-10T07:51:12.036Z,0.62
2018-02-10T07:53:40.090Z,0.66
2018-02-10T07:56:07.782Z,0.67
2018-02-10T07:58:36.061Z,0.71
2018-02-10T08:01:03.806Z,0.73
2018-02-10T08:03:31.479Z,0.76
2018-02-10T08:05:59.175Z,0.75
2018-02-10T08:08:26.882Z,0.75
2018-02-10T08:10:54.564Z,0.75
2018-02-10T08:13:22.317Z,0.77
2018-02-10T08:15:50.026Z,0.86
2018-02-10T08:18:17.931Z,0.85
2018-02-10T08:20:45.939Z,0.86
2018-02-10T08:23:13.574Z,0.89
2018-02-10T08:25:41.638Z,0.89
2018-02-10T08:28:09.282Z,0.87
2018-02-10T08:30:36.944Z,0.88
2018-02-10T08:33:04.637Z,0.92
2018-02-10T08:35:32.262Z,0.90
2018-02-10T08:37:59.930Z,0.92
2018-02-10T08:40:27.612Z,0.94
2018-02-10T08:42:55.241Z,0.96
2018-02-10T08:45:22.904Z,0.97
2018-02-10T08:47:50.644Z,0.98
2018-02-10T08:50:18.349Z,1.02
2018-02-10T08:52:46.357Z,1.10
2018-02-10T08:55:13.959Z,1.18
2018-02-10T08:57:41.572Z,1.24
2018-02-10T09:00:09.346Z,1.30
2018-02-10T09:02:37.034Z,1.35
2018-02-10T09:05:04.694Z,1.41
2018-02-10T09:07:32.356Z,1.45
2018-02-10T09:10:00.015Z,1.47
2018-02-10T09:12:28.075Z,1.50
2018-02-10T09:14:55.704Z,1.53
2018-02-10T09:17:23.710Z,1.56
2018-02-10T09:19:52.085Z,1.58
2018-02-10T09:22:19.986Z,1.60
2018-02-10T09:24:47.758Z,1.63
2018-02-10T09:27:15.484Z,1.65
2018-02-10T09:29:43.118Z,1.69
2018-02-10T09:32:11.234Z,1.72
2018-02-10T09:34:38.929Z,1.75
2018-02-10T09:37:06.551Z,1.78
2018-02-10T09:39:34.247Z,1.82
2018-02-10T09:42:01.905Z,1.84
2018-02-10T09:44:29.600Z,1.88
2018-02-10T09:46:57.340Z,1.91
2018-02-10T09:49:25.212Z,1.93
2018-02-10T09:51:53.210Z,1.96
2018-02-10T09:54:20.866Z,2.00
2018-02-10T09:56:48.526Z,2.01
2018-02-10T09:59:16.188Z,2.02
2018-02-10T10:01:43.908Z,2.06
2018-02-10T10:04:11.667Z,2.07
2018-02-10T10:06:39.324Z,2.10
2018-02-10T10:09:07.102Z,2.11
2018-02-10T10:11:35.070Z,2.11
2018-02-10T10:14:02.791Z,2.14
2018-02-10T10:16:30.504Z,2.15
2018-02-10T10:18:58.638Z,2.15
2018-02-10T10:21:26.426Z,2.17
2018-02-10T10:23:54.182Z,2.20
2018-02-10T10:26:21.839Z,2.26
2018-02-10T10:28:49.948Z,2.26
2018-02-10T10:31:17.642Z,2.29
2018-02-10T10:33:45.284Z,2.33
2018-02-10T10:36:15.934Z,2.35
2018-02-10T10:38:47.695Z,2.36
2018-02-10T10:41:23.111Z,2.39
2018-02-10T10:43:59.759Z,2.40
2018-02-10T10:46:27.469Z,2.44
2018-02-10T10:48:55.166Z,2.48
2018-02-10T10:51:23.214Z,2.52
2018-02-10T10:53:50.880Z,2.54
2018-02-10T10:56:18.641Z,2.56
2018-02-10T10:58:46.349Z,2.61
2018-02-10T11:01:14.620Z,2.65
2018-02-10T11:03:48.914Z,2.70
2018-02-10T11:06:17.368Z,2.74
2018-02-10T11:08:45.166Z,2.77
2018-02-10T11:24:55.268Z,2.91
2018-02-10T11:27:23.048Z,2.93
2018-02-10T11:29:50.748Z,2.95
2018-02-10T11:32:18.519Z,2.95
2018-02-10T11:34:46.678Z,2.97
2018-02-10T11:37:14.778Z,2.98
2018-02-10T11:39:42.640Z,2.98
2018-02-10T11:42:11.143Z,2.98
2018-02-10T11:44:38.875Z,3.01
2018-02-10T11:47:07.734Z,3.03
2018-02-10T11:49:35.527Z,3.06
2018-02-10T11:52:06.532Z,3.10
2018-02-10T11:54:34.243Z,3.10
2018-02-10T11:57:02.015Z,3.14
2018-02-10T11:59:29.799Z,3.17
2018-02-10T12:02:04.428Z,3.20
2018-02-10T12:04:32.577Z,3.21
2018-02-10T12:07:01.557Z,3.24
2018-02-10T12:09:33.815Z,3.23
2018-02-10T12:12:01.501Z,3.26
2018-02-10T12:14:29.280Z,3.28
2018-02-10T12:16:58.095Z,3.32
2018-02-10T12:19:27.543Z,3.35
2018-02-10T12:21:56.750Z,3.40
2018-02-10T12:24:24.821Z,3.44
2018-02-10T12:27:04.909Z,3.49
2018-02-10T12:29:32.935Z,3.52
2018-02-10T12:32:00.705Z,3.58
2018-02-10T12:34:28.828Z,3.63
2018-02-10T12:36:56.494Z,3.68
2018-02-10T12:39:25.211Z,3.74
2018-02-10T12:41:52.932Z,3.82
2018-02-10T12:44:20.661Z,3.88
2018-02-10T12:46:48.442Z,3.87
2018-02-10T12:49:35.941Z,3.90
2018-02-10T12:52:04.141Z,3.94
2018-02-10T12:54:31.940Z,3.95
2018-02-10T12:56:59.947Z,3.96
2018-02-10T12:59:28.026Z,3.91
2018-02-10T13:01:56.110Z,3.93
2018-02-10T13:04:23.877Z,3.98
2018-02-10T13:06:51.596Z,3.99
2018-02-10T13:09:19.282Z,4.00
2018-02-10T13:11:47.001Z,4.03
2018-02-10T13:14:14.615Z,4.08
2018-02-10T13:16:42.418Z,4.10
2018-02-10T13:19:10.076Z,4.12
2018-02-10T13:21:37.794Z,4.16
2018-02-10T13:24:05.472Z,4.19
2018-02-10T13:26:33.296Z,4.19
2018-02-10T13:29:01.018Z,4.20
2018-02-10T13:31:29.071Z,4.23
2018-02-10T13:33:56.796Z,4.22
2018-02-10T13:36:24.517Z,4.18
2018-02-10T13:38:53.345Z,4.18
2018-02-10T13:41:21.036Z,4.18
2018-02-10T13:43:48.836Z,4.19
2018-02-10T13:46:16.576Z,4.21
2018-02-10T13:48:44.684Z,4.21
2018-02-10T13:51:12.497Z,4.21
2018-02-10T13:53:40.172Z,4.20
2018-02-10T13:56:08.257Z,4.17
2018-02-10T13:58:35.992Z,4.18
2018-02-10T14:01:03.629Z,4.18
2018-02-10T14:03:31.293Z,4.19
2018-02-10T14:05:59.029Z,4.18
2018-02-10T14:08:27.073Z,4.18
2018-02-10T14:10:54.821Z,4.19
2018-02-10T14:13:22.481Z,4.22
2018-02-10T14:15:53.871Z,4.23
2018-02-10T14:18:22.062Z,4.26
2018-02-10T14:20:49.774Z,4.25
2018-02-10T14:23:17.632Z,4.25
2018-02-10T14:25:45.494Z,4.24
2018-02-10T14:28:13.235Z,4.20
2018-02-10T14:30:41.374Z,4.21
2018-02-10T14:33:09.498Z,4.21
2018-02-10T14:35:37.249Z,4.21
2018-02-10T14:38:04.961Z,4.21
2018-02-10T14:40:33.991Z,4.23
2018-02-10T14:43:01.772Z,4.26
2018-02-10T14:45:29.560Z,4.26
2018-02-10T14:47:57.340Z,4.25
2018-02-10T14:50:25.124Z,4.25
2018-02-10T14:52:53.384Z,4.23
2018-02-10T14:55:21.159Z,4.21
2018-02-10T14:57:48.839Z,4.17
2018-02-10T15:03:07.496Z,4.20
2018-02-10T15:05:36.080Z,4.19
2018-02-10T15:08:03.866Z,4.20
2018-02-10T15:10:31.592Z,4.20
2018-02-10T15:12:59.437Z,4.19
2018-02-10T15:15:27.189Z,4.18
2018-02-10T15:17:55.124Z,4.17
2018-02-10T15:20:22.892Z,4.16
2018-02-10T15:22:50.820Z,4.14
2018-02-10T15:25:18.531Z,4.13
2018-02-10T15:27:46.337Z,4.12
2018-02-10T15:30:25.904Z,4.11
2018-02-10T15:33:05.577Z,4.07
2018-02-10T15:35:33.384Z,4.02
2018-02-10T15:38:02.438Z,4.02
2018-02-10T15:40:30.508Z,4.02
2018-02-10T15:42:58.241Z,3.99
2018-02-10T15:45:25.985Z,3.99
2018-02-10T15:47:53.785Z,3.98
2018-02-10T15:50:21.560Z,3.96
2018-02-10T15:52:49.327Z,3.95
2018-02-10T15:55:17.113Z,3.90
2018-02-10T15:57:44.919Z,3.85
2018-02-10T16:00:15.811Z,3.82
2018-02-10T16:02:43.700Z,3.82
2018-02-10T16:05:11.770Z,3.81
2018-02-10T16:07:40.568Z,3.77
2018-02-10T16:10:08.324Z,3.74
2018-02-10T16:12:36.147Z,3.71
2018-02-10T16:15:06.818Z,3.69
2018-02-10T16:17:38.334Z,3.65
2018-02-10T16:20:08.264Z,3.65
2018-02-10T16:22:37.878Z,3.62
2018-02-10T16:25:05.634Z,3.61
2018-02-10T16:27:33.506Z,3.59
2018-02-10T16:30:01.274Z,3.59
2018-02-10T16:32:29.038Z,3.58
2018-02-10T16:34:56.852Z,3.56
2018-02-10T16:42:36.613Z,3.39
2018-02-10T16:45:04.648Z,3.37
2018-02-10T16:47:32.374Z,3.35
2018-02-10T16:50:00.549Z,3.31
2018-02-10T16:52:28.732Z,3.28
2018-02-10T16:54:56.990Z,3.22
2018-02-10T16:57:27.146Z,3.17
2018-02-10T16:59:54.982Z,3.15
2018-02-10T17:02:22.689Z,3.12
2018-02-10T17:04:50.463Z,3.05
2018-02-10T17:07:18.196Z,3.01
2018-02-10T17:09:45.916Z,2.99
2018-02-10T17:12:13.609Z,2.93
2018-02-10T17:14:43.658Z,2.91
2018-02-10T17:17:13.274Z,2.87
2018-02-10T17:19:41.537Z,2.84
2018-02-10T17:22:09.466Z,2.81
2018-02-10T17:24:37.170Z,2.77
2018-02-10T17:27:06.509Z,2.75
2018-02-10T17:29:34.558Z,2.73
2018-02-10T17:32:02.358Z,2.70
2018-02-10T17:34:30.048Z,2.67
2018-02-10T17:36:57.757Z,2.68
2018-02-10T17:39:25.555Z,2.67
2018-02-10T17:41:53.266Z,2.69
2018-02-10T17:44:20.984Z,2.71
2018-02-10T17:46:48.704Z,2.72
2018-02-10T17:49:16.372Z,2.73
2018-02-10T17:51:44.454Z,2.74
2018-02-10T17:54:12.186Z,2.72
2018-02-10T17:56:39.845Z,2.71
2018-02-10T17:59:07.523Z,2.70
2018-02-10T18:01:35.270Z,2.71
2018-02-10T18:04:03.033Z,2.68
2018-02-10T18:06:30.779Z,2.68
2018-02-10T18:08:58.581Z,2.67
2018-02-10T18:11:26.313Z,2.68
2018-02-10T18:13:54.129Z,2.69
2018-02-10T18:16:21.871Z,2.69
2018-02-10T18:18:49.683Z,2.71
2018-02-10T18:21:17.406Z,2.72
2018-02-10T18:23:45.243Z,2.71
2018-02-10T18:26:13.022Z,2.67
2018-02-10T18:28:40.882Z,2.67
2018-02-10T18:31:08.738Z,2.67
2018-02-10T18:33:36.501Z,2.66
2018-02-10T18:36:04.240Z,2.65
2018-02-10T18:38:33.076Z,2.66
2018-02-10T18:41:00.816Z,2.64
2018-02-10T18:43:28.566Z,2.65
2018-02-10T18:45:56.323Z,2.66
2018-02-10T18:48:24.440Z,2.66
2018-02-10T18:50:52.177Z,2.65
2018-02-10T18:53:20.188Z,2.63
2018-02-10T18:55:47.952Z,2.65
2018-02-10T18:58:15.850Z,2.65
2018-02-10T19:00:44.301Z,2.65
2018-02-10T19:03:11.983Z,2.65
2018-02-10T19:05:39.691Z,2.65
2018-02-10T19:08:07.432Z,2.64
2018-02-10T19:10:35.550Z,2.62
2018-02-10T19:13:03.269Z,2.60
2018-02-10T19:15:31.069Z,2.61
2018-02-10T19:17:59.571Z,2.62
2018-02-10T19:20:27.525Z,2.61
2018-02-10T19:22:55.298Z,2.61
2018-02-10T19:25:23.075Z,2.62
2018-02-10T19:27:50.760Z,2.63
2018-02-10T19:30:18.613Z,2.63
2018-02-10T19:32:46.365Z,2.62
2018-02-10T19:35:14.142Z,2.60
2018-02-10T19:37:41.883Z,2.63
2018-02-10T19:40:09.649Z,2.64
2018-02-10T19:42:37.471Z,2.61
2018-02-10T19:45:05.262Z,2.60
2018-02-10T19:47:33.101Z,2.58
2018-02-10T19:50:00.834Z,2.61
2018-02-10T19:52:28.531Z,2.62
2018-02-10T19:54:56.278Z,2.60
2018-02-10T19:57:24.021Z,2.62
2018-02-10T19:59:51.858Z,2.63
2018-02-10T20:02:19.718Z,2.63
2018-02-10T20:04:47.429Z,2.66
2018-02-10T20:07:15.115Z,2.67
2018-02-10T20:09:43.260Z,2.66
2018-02-10T20:12:11.211Z,2.69
2018-02-10T20:14:39.386Z,2.72
2018-02-10T20:17:07.118Z,2.73
2018-02-10T20:19:34.951Z,2.75
2018-02-10T20:22:02.736Z,2.77
2018-02-10T20:24:30.958Z,2.77
2018-02-10T20:26:59.160Z,2.82
2018-02-10T20:29:26.976Z,2.85
2018-02-10T20:31:54.664Z,2.85
2018-02-10T20:34:22.455Z,2.87
2018-02-10T20:36:50.226Z,2.86
2018-02-10T20:39:18.005Z,2.90
2018-02-10T20:41:45.872Z,2.92
2018-02-10T20:44:13.637Z,2.93
2018-02-10T20:46:41.379Z,2.94
2018-02-10T20:49:09.182Z,2.93
2018-02-10T20:51:37.137Z,2.94
2018-02-10T20:54:04.923Z,2.95
2018-02-10T20:56:33.249Z,2.95
2018-02-10T20:59:01.130Z,2.96
2018-02-10T21:01:28.908Z,2.98
2018-02-10T21:03:56.745Z,3.00
2018-02-10T21:11:43.706Z,3.02
2018-02-10T21:14:11.442Z,3.00
2018-02-10T21:16:39.221Z,3.01
2018-02-10T21:19:07.033Z,3.03
2018-02-10T21:21:34.685Z,3.04
2018-02-10T21:24:02.412Z,3.04
2018-02-10T21:26:30.105Z,3.01
2018-02-10T21:28:57.914Z,3.04
2018-02-10T21:31:25.618Z,3.04
2018-02-10T21:33:53.380Z,3.02
2018-02-10T21:36:21.130Z,3.04
2018-02-10T21:38:48.923Z,3.04
2018-02-10T21:41:16.640Z,3.04
2018-02-10T21:43:44.396Z,3.04
2018-02-10T21:46:12.168Z,3.05
2018-02-10T21:48:39.972Z,3.00
2018-02-10T21:51:07.779Z,3.00
2018-02-10T21:53:35.426Z,3.00
2018-02-10T21:56:03.152Z,3.01
2018-02-10T21:58:30.891Z,2.98
2018-02-10T22:00:58.964Z,3.00
2018-02-10T22:03:26.659Z,2.99
2018-02-10T22:05:54.545Z,3.00
2018-02-10T22:08:22.210Z,3.00
2018-02-10T22:19:52.166Z,2.97
2018-02-10T22:22:19.910Z,2.96
2018-02-10T22:24:47.670Z,2.96
2018-02-10T22:27:15.566Z,2.97
2018-02-10T22:29:43.315Z,2.95
2018-02-10T22:32:11.127Z,2.96
2018-02-10T22:34:38.892Z,2.94
2018-02-10T22:37:06.606Z,2.98
2018-02-10T22:39:34.346Z,2.94
2018-02-10T22:42:02.171Z,2.93
2018-02-10T22:44:29.953Z,2.93
2018-02-10T22:46:57.800Z,2.93
2018-02-10T22:49:25.619Z,2.93
2018-02-10T22:51:53.451Z,2.96
2018-02-10T22:54:21.298Z,2.94
2018-02-10T22:56:49.440Z,2.95
2018-02-10T22:59:17.220Z,2.95
2018-02-10T23:01:45.467Z,2.92
2018-02-10T23:04:13.575Z,2.90
2018-02-10T23:06:41.324Z,2.90
2018-02-10T23:09:09.126Z,2.92
2018-02-10T23:11:36.800Z,2.93
2018-02-10T23:14:04.537Z,2.87
2018-02-10T23:16:32.302Z,2.82
2018-02-10T23:19:00.113Z,2.84
2018-02-10T23:21:27.866Z,2.83
2018-02-10T23:23:55.589Z,2.79
2018-02-10T23:26:23.331Z,2.77
2018-02-10T23:28:51.066Z,2.74
2018-02-10T23:31:18.788Z,2.68
2018-02-10T23:33:46.499Z,2.64
2018-02-10T23:36:14.693Z,2.60
2018-02-10T23:38:42.349Z,2.53
2018-02-10T23:41:10.089Z,2.50
2018-02-10T23:43:37.977Z,2.48
2018-02-10T23:46:06.308Z,2.48
2018-02-10T23:48:34.594Z,2.47
2018-02-10T23:51:03.077Z,2.47
2018-02-10T23:53:31.090Z,2.41
2018-02-10T23:55:58.810Z,2.38
2018-02-10T23:58:26.514Z,2.41
